Time;durP1;ratioP1;P1;durP2;ratioP2;P2;SDS_P1;SDS_P2;PMS_P1;PMS_P2;Temp;Humidity;BMP_temperature;BMP_pressure;BME280_temperature;BME280_humidity;BME280_pressure;Samples;Min_cycle;Max_cycle;Signal;HPM_P1;HPM_P2
2023/11/16 00:02:04;;;;;;;;;;;7.90;99.90;;;7.27;100.00;98130.56;5000147;28;1557;-71
2023/11/16 00:04:34;;;;;;;;;;;7.80;99.90;;;7.19;100.00;98131.63;4998346;28;1560;-72
2023/11/16 00:07:06;;;;;;;;;;;7.80;99.90;;;7.42;100.00;98123.41;5001601;28;1534;-71
2023/11/16 00:09:33;;;;;;;;;;;7.80;99.90;;;7.28;100.00;98129.72;5001265;28;1768;-71
2023/11/16 00:12:02;;;;;;;;;;;7.90;99.90;;;7.40;100.00;98123.44;5001506;28;1717;-71
2023/11/16 00:14:29;;;;;;;;;;;7.80;99.90;;;7.53;100.00;98124.88;5000964;28;1543;-72
2023/11/16 00:16:55;;;;;;;;;;;7.90;99.90;;;7.39;100.00;98119.16;5000157;28;1930;-70
2023/11/16 00:19:23;;;;;;;;;;;7.90;99.90;;;7.46;100.00;98115.56;5001213;28;1697;-70
2023/11/16 00:21:50;;;;;;;;;;;7.90;99.90;;;7.35;100.00;98102.03;5000150;28;1697;-70
2023/11/16 00:24:18;;;;;;;;;;;7.90;99.90;;;7.47;100.00;98114.66;4999838;28;2100;-71
2023/11/16 00:26:45;;;;;;;;;;;7.80;99.90;;;7.56;100.00;98100.72;5012934;28;1582;-70
2023/11/16 00:29:12;;;;;;;;;;;7.80;99.90;;;7.35;100.00;98096.88;5001679;28;1546;-71
2023/11/16 00:31:39;;;;;;;;;;;7.80;99.90;;;7.44;100.00;98094.09;5001936;28;1542;-71
2023/11/16 00:34:06;;;;;;;;;;;7.80;99.90;;;7.45;100.00;98084.59;4999387;28;1771;-71
2023/11/16 00:36:39;;;;;;;;;;;7.80;99.90;;;7.30;100.00;98083.22;4996662;28;2308;-70
2023/11/16 00:39:08;;;;;;;;;;;7.90;99.90;;;7.44;100.00;98070.00;5000376;28;1601;-70
2023/11/16 00:41:35;;;;;;;;;;;7.80;99.90;;;7.29;100.00;98069.41;5000386;28;1617;-70
2023/11/16 00:44:05;;;;;;;;;;;7.90;99.90;;;7.33;100.00;98070.22;5000694;28;1479;-72
2023/11/16 00:46:35;;;;;;;;;;;7.90;99.90;;;7.47;100.00;98068.19;5001349;28;1660;-71
2023/11/16 00:49:03;;;;;;;;;;;7.80;99.90;;;7.32;100.00;98068.50;5000941;28;1528;-71
2023/11/16 00:51:30;;;;;;;;;;;7.80;99.90;;;7.34;100.00;98069.31;5000614;28;1578;-71
2023/11/16 00:53:57;;;;;;;;;;;7.90;99.90;;;7.41;100.00;98057.13;5001779;28;1571;-70
2023/11/16 00:56:24;;;;;;;;;;;7.90;99.90;;;7.22;100.00;98052.38;5014727;28;1914;-72
2023/11/16 00:58:50;;;;;;;;;;;7.90;99.90;;;7.33;100.00;98054.72;5004419;28;1434;-70
2023/11/16 01:01:17;;;;;;;;;;;7.80;99.90;;;7.32;100.00;98046.13;4998016;28;1959;-71
2023/11/16 01:03:44;;;;;;;;;;;7.90;99.90;;;7.34;100.00;98051.25;5004699;28;1467;-70
2023/11/16 01:06:13;;;;;;;;;;;7.80;99.90;;;7.17;100.00;98054.22;4999102;28;1634;-71
2023/11/16 01:08:39;;;;;;;;;;;7.80;99.90;;;7.26;100.00;98051.44;5000771;28;1594;-71
2023/11/16 01:11:12;;;;;;;;;;;7.80;99.90;;;7.35;100.00;98059.88;4996983;28;1572;-72
2023/11/16 01:13:40;;;;;;;;;;;7.80;99.90;;;7.35;100.00;98050.38;5000685;28;1406;-70
2023/11/16 01:16:14;;;;;;;;;;;7.80;99.90;;;7.28;100.00;98048.81;4998104;28;1898;-71
2023/11/16 01:18:51;;;;;;;;;;;7.90;99.90;;;7.21;100.00;98055.84;5000898;28;1659;-70
2023/11/16 01:21:19;;;;;;;;;;;7.90;99.90;;;7.19;100.00;98057.59;5013896;28;1696;-72
2023/11/16 01:23:47;;;;;;;;;;;7.90;99.90;;;7.23;100.00;98068.69;4997834;28;1656;-72
2023/11/16 01:26:15;;;;;;;;;;;7.80;99.90;;;7.19;100.00;98067.94;5000967;28;1536;-72
2023/11/16 01:28:49;;;;;;;;;;;7.80;99.90;;;7.10;100.00;98076.72;5000151;28;1860;-71
2023/11/16 01:31:20;;;;;;;;;;;7.80;99.90;;;7.18;100.00;98070.53;4999445;28;1617;-71
2023/11/16 01:33:47;;;;;;;;;;;7.80;99.90;;;7.06;100.00;98064.75;4985261;28;1392;-71
2023/11/16 01:36:14;;;;;;;;;;;7.80;99.90;;;7.10;100.00;98066.38;4998729;28;2006;-71
2023/11/16 01:38:41;;;;;;;;;;;7.80;99.90;;;6.95;100.00;98065.84;5004005;28;1598;-73
2023/11/16 01:41:09;;;;;;;;;;;7.70;99.90;;;7.00;100.00;98067.47;4998153;28;1558;-71
2023/11/16 01:43:37;;;;;;;;;;;7.70;99.90;;;7.00;100.00;98058.84;5000982;28;1590;-72
2023/11/16 01:46:07;;;;;;;;;;;7.60;99.90;;;6.88;100.00;98060.81;5002470;28;1532;-71
2023/11/16 01:48:36;;;;;;;;;;;7.60;99.90;;;6.91;100.00;98065.06;5000943;28;1555;-70
2023/11/16 01:51:06;;;;;;;;;;;7.50;99.90;;;6.97;100.00;98069.25;5001619;28;1623;-70
2023/11/16 01:53:41;;;;;;;;;;;7.50;99.90;;;6.87;100.00;98073.75;5014833;28;1689;-71
2023/11/16 01:56:08;;;;;;;;;;;7.50;99.90;;;6.80;100.00;98065.28;5015359;28;1907;-71
2023/11/16 01:58:37;;;;;;;;;;;7.50;99.90;;;6.89;100.00;98066.84;4984574;28;1536;-71
2023/11/16 02:01:22;;;;;;;;;;;7.50;99.90;;;6.80;100.00;98065.28;4999577;28;1694;-70
2023/11/16 02:03:49;;;;;;;;;;;7.50;99.90;;;6.79;100.00;98066.16;5000644;28;1707;-70
2023/11/16 02:06:16;;;;;;;;;;;7.50;99.90;;;6.82;100.00;98060.06;4997356;28;1794;-71
2023/11/16 02:08:43;;;;;;;;;;;7.50;99.90;;;6.85;100.00;98057.47;5002306;28;1543;-71
2023/11/16 02:11:10;;;;;;;;;;;7.50;99.90;;;6.82;100.00;98053.22;4998560;28;1722;-70
2023/11/16 02:13:37;;;;;;;;;;;7.50;99.90;;;6.84;100.00;98058.31;4995557;28;1585;-70
2023/11/16 02:16:06;;;;;;;;;;;7.50;99.90;;;6.98;100.00;98052.88;4995113;28;1906;-71
2023/11/16 02:18:38;;;;;;;;;;;7.40;99.90;;;6.86;100.00;98051.41;4997279;28;1675;-70
2023/11/16 02:21:06;;;;;;;;;;;7.40;99.90;;;6.73;100.00;98049.94;4997467;28;1609;-71
2023/11/16 02:23:34;;;;;;;;;;;7.40;99.90;;;6.70;100.00;98049.16;4998186;28;1556;-70
2023/11/16 02:26:01;;;;;;;;;;;7.40;99.90;;;6.71;100.00;98050.00;5013119;28;1512;-70
2023/11/16 02:28:28;;;;;;;;;;;7.40;99.90;;;6.91;100.00;98039.25;5000357;28;1605;-71
2023/11/16 02:31:01;;;;;;;;;;;7.40;99.90;;;6.84;100.00;98040.25;4996973;28;1550;-71
2023/11/16 02:33:28;;;;;;;;;;;7.50;99.90;;;6.97;100.00;98039.13;4985521;28;1532;-70
2023/11/16 02:35:57;;;;;;;;;;;7.50;99.90;;;6.95;100.00;98030.56;5001546;28;1528;-71
2023/11/16 02:38:24;;;;;;;;;;;7.50;99.90;;;6.89;100.00;98023.81;5012741;28;2027;-72
2023/11/16 02:40:51;;;;;;;;;;;7.60;99.90;;;7.13;100.00;98019.84;4998427;28;1536;-71
2023/11/16 02:43:20;;;;;;;;;;;7.60;99.90;;;7.07;100.00;98016.53;5001792;28;1742;-70
2023/11/16 02:45:50;;;;;;;;;;;7.70;99.90;;;6.95;100.00;98015.09;5002476;28;1797;-70
2023/11/16 02:48:17;;;;;;;;;;;7.70;99.90;;;7.09;100.00;98018.25;5003281;28;1540;-71
2023/11/16 02:50:44;;;;;;;;;;;7.70;99.90;;;7.10;100.00;98017.34;5003719;28;1536;-71
2023/11/16 02:53:12;;;;;;;;;;;7.60;99.90;;;7.25;100.00;98015.31;5006083;28;1546;-71
2023/11/16 02:55:39;;;;;;;;;;;7.70;99.90;;;7.20;100.00;98015.41;5004158;28;1479;-71
2023/11/16 02:58:06;;;;;;;;;;;7.60;99.90;;;7.42;100.00;98015.78;5001362;28;1922;-70
2023/11/16 03:00:34;;;;;;;;;;;7.70;99.90;;;7.26;100.00;98009.28;5013582;28;1645;-70
2023/11/16 03:03:02;;;;;;;;;;;7.80;99.90;;;7.19;100.00;98003.41;5002145;28;1499;-70
2023/11/16 03:05:30;;;;;;;;;;;7.80;99.90;;;6.94;100.00;98021.13;5005119;28;1603;-72
2023/11/16 03:07:57;;;;;;;;;;;7.70;99.90;;;6.83;100.00;98026.50;5002459;28;1436;-71
2023/11/16 03:10:24;;;;;;;;;;;7.70;99.90;;;6.87;100.00;98023.00;5001914;28;1653;-71
2023/11/16 03:12:52;;;;;;;;;;;7.60;99.90;;;6.78;100.00;98012.88;4992267;28;1744;-71
2023/11/16 03:15:19;;;;;;;;;;;7.60;99.90;;;6.82;100.00;97988.72;4997960;28;1583;-70
2023/11/16 03:17:46;;;;;;;;;;;7.60;99.90;;;6.87;100.00;97984.28;5002176;28;1979;-71
2023/11/16 03:20:17;;;;;;;;;;;7.50;99.90;;;6.87;100.00;97988.59;4999372;28;1601;-70
2023/11/16 03:22:44;;;;;;;;;;;7.60;99.90;;;6.94;100.00;97990.16;5001223;28;1403;-71
2023/11/16 03:25:11;;;;;;;;;;;7.60;99.90;;;6.90;100.00;97985.94;5005757;28;1521;-72
2023/11/16 03:27:41;;;;;;;;;;;7.60;99.90;;;6.84;100.00;97992.09;5003713;28;1522;-71
2023/11/16 03:30:08;;;;;;;;;;;7.50;99.90;;;6.90;100.00;97979.06;5002083;28;1530;-71
2023/11/16 03:32:35;;;;;;;;;;;7.50;99.90;;;6.94;100.00;97979.00;5000553;28;1619;-70
2023/11/16 03:35:03;;;;;;;;;;;7.60;99.90;;;7.07;100.00;97977.81;5001789;28;1556;-70
2023/11/16 03:37:31;;;;;;;;;;;7.50;99.90;;;7.09;100.00;97981.22;5000186;28;1918;-70
2023/11/16 03:39:58;;;;;;;;;;;7.50;99.90;;;6.96;100.00;97979.81;4995847;28;1561;-73
2023/11/16 03:42:25;;;;;;;;;;;7.50;99.90;;;6.93;100.00;97978.13;5000737;28;1607;-70
2023/11/16 03:44:52;;;;;;;;;;;7.60;99.90;;;7.02;100.00;97974.50;5000655;28;1461;-70
2023/11/16 03:47:19;;;;;;;;;;;7.60;99.90;;;7.07;100.00;97975.25;5003266;28;1404;-72
2023/11/16 03:49:46;;;;;;;;;;;7.70;99.90;;;6.99;100.00;97977.16;5001794;28;1506;-71
2023/11/16 03:52:12;;;;;;;;;;;7.60;99.90;;;7.03;100.00;97973.66;5002799;28;1707;-71
2023/11/16 03:54:39;;;;;;;;;;;7.70;99.90;;;6.94;100.00;97982.44;5003911;28;1495;-71
2023/11/16 03:57:08;;;;;;;;;;;7.70;99.90;;;6.95;100.00;97975.53;4998307;28;1898;-70
2023/11/16 03:59:36;;;;;;;;;;;7.60;99.90;;;7.11;100.00;97971.72;5001191;28;1557;-71
2023/11/16 04:02:04;;;;;;;;;;;7.60;99.90;;;7.02;100.00;97969.34;4997809;28;1592;-70
2023/11/16 04:04:31;;;;;;;;;;;7.60;99.90;;;7.06;100.00;97974.41;4998936;28;1611;-70
2023/11/16 04:06:58;;;;;;;;;;;7.70;99.90;;;7.09;100.00;97970.91;5003609;28;1460;-69
2023/11/16 04:09:26;;;;;;;;;;;7.70;99.90;;;7.02;100.00;97962.44;4999278;28;1565;-70
2023/11/16 04:11:53;;;;;;;;;;;7.70;99.90;;;7.00;100.00;97960.78;4998159;28;1588;-70
2023/11/16 04:14:20;;;;;;;;;;;7.60;99.90;;;7.14;100.00;97963.94;5001767;28;1537;-70
2023/11/16 04:16:52;;;;;;;;;;;7.60;99.90;;;7.05;100.00;97952.06;4999476;28;1910;-71
2023/11/16 04:19:20;;;;;;;;;;;7.60;99.90;;;7.04;100.00;97949.50;5001233;28;1657;-71
2023/11/16 04:21:49;;;;;;;;;;;7.60;99.90;;;7.13;100.00;97947.56;5001320;28;1495;-70
2023/11/16 04:24:16;;;;;;;;;;;7.70;99.90;;;7.06;100.00;97955.50;4999879;28;2012;-70
2023/11/16 04:26:48;;;;;;;;;;;7.60;99.90;;;7.03;100.00;97961.59;5000595;28;1490;-70
2023/11/16 04:29:16;;;;;;;;;;;7.60;99.90;;;7.11;100.00;97967.41;5005127;28;1590;-70
2023/11/16 04:31:44;;;;;;;;;;;7.60;99.90;;;7.01;100.00;97965.91;5019948;28;1534;-70
2023/11/16 04:34:12;;;;;;;;;;;7.60;99.90;;;7.06;100.00;97956.34;5024476;28;1574;-70
2023/11/16 04:36:41;;;;;;;;;;;7.60;99.90;;;7.10;100.00;97947.66;5023768;28;1910;-70
2023/11/16 04:39:08;;;;;;;;;;;7.70;99.90;;;7.01;100.00;97947.00;5024087;28;1547;-71
2023/11/16 04:41:35;;;;;;;;;;;7.70;99.90;;;7.13;100.00;97957.06;5020667;28;1571;-74
2023/11/16 04:44:04;;;;;;;;;;;7.60;99.90;;;7.01;100.00;97947.00;5019174;28;1561;-70
2023/11/16 04:46:31;;;;;;;;;;;7.60;99.90;;;7.00;100.00;97938.44;5018595;28;1592;-70
2023/11/16 04:48:59;;;;;;;;;;;7.60;99.90;;;6.98;100.00;97940.19;5007656;28;1540;-71
2023/11/16 04:51:26;;;;;;;;;;;7.60;99.90;;;6.99;100.00;97941.03;5006576;28;1814;-71
2023/11/16 04:53:53;;;;;;;;;;;7.60;99.90;;;6.96;100.00;97935.94;5022886;28;1491;-71
2023/11/16 04:56:19;;;;;;;;;;;7.60;99.90;;;6.93;100.00;97929.09;5022213;28;1401;-71
2023/11/16 04:58:46;;;;;;;;;;;7.50;99.90;;;6.92;100.00;97927.41;5010896;28;1915;-70
2023/11/16 05:01:16;;;;;;;;;;;7.60;99.90;;;7.04;100.00;97932.28;5019874;28;1731;-71
2023/11/16 05:03:47;;;;;;;;;;;7.60;99.90;;;7.04;100.00;97921.13;5022099;28;1617;-71
2023/11/16 05:06:14;;;;;;;;;;;7.60;99.90;;;7.01;100.00;97927.22;5022678;28;1675;-71
2023/11/16 05:08:42;;;;;;;;;;;7.60;99.90;;;7.18;100.00;97919.06;5021135;28;1570;-70
2023/11/16 05:11:09;;;;;;;;;;;7.60;99.90;;;7.04;100.00;97911.63;5020810;28;1653;-70
2023/11/16 05:13:35;;;;;;;;;;;7.60;99.90;;;7.08;100.00;97915.84;5001595;28;1635;-71
2023/11/16 05:16:05;;;;;;;;;;;7.50;99.90;;;7.11;100.00;97914.94;5020697;28;1626;-70
2023/11/16 05:18:32;;;;;;;;;;;7.60;99.90;;;7.16;100.00;97914.81;5017816;28;1914;-69
2023/11/16 05:21:04;;;;;;;;;;;7.50;99.90;;;7.14;100.00;97909.72;5022744;28;1610;-71
2023/11/16 05:23:31;;;;;;;;;;;7.60;99.90;;;7.13;100.00;97908.84;5023737;28;1575;-70
2023/11/16 05:25:58;;;;;;;;;;;7.60;99.90;;;7.13;100.00;97895.94;5005816;28;1510;-71
2023/11/16 05:28:25;;;;;;;;;;;7.60;99.90;;;7.11;100.00;97896.88;5019599;28;1560;-71
2023/11/16 05:30:52;;;;;;;;;;;7.60;99.90;;;7.09;100.00;97896.91;5019839;28;1578;-70
2023/11/16 05:33:22;;;;;;;;;;;7.60;99.90;;;7.13;100.00;97883.03;5023326;28;1539;-72
2023/11/16 05:35:51;;;;;;;;;;;7.70;99.90;;;7.04;100.00;97882.41;5020485;28;1633;-71
2023/11/16 05:38:22;;;;;;;;;;;7.70;99.90;;;6.98;100.00;97895.44;5016099;28;1973;-73
2023/11/16 05:40:52;;;;;;;;;;;7.70;99.90;;;7.10;100.00;97879.69;5019506;28;1835;-70
2023/11/16 05:43:19;;;;;;;;;;;7.70;99.90;;;7.12;100.00;97883.94;5018333;28;1705;-70
2023/11/16 05:45:47;;;;;;;;;;;7.70;99.90;;;7.10;100.00;97884.84;5020246;28;1531;-71
2023/11/16 05:48:15;;;;;;;;;;;7.70;99.90;;;6.98;100.00;97879.97;5003955;28;1270;-70
2023/11/16 05:50:42;;;;;;;;;;;7.70;99.90;;;6.90;100.00;97872.41;5007529;28;1637;-72
2023/11/16 05:53:11;;;;;;;;;;;7.80;99.90;;;6.95;100.00;97867.97;5001885;28;1675;-72
2023/11/16 05:55:38;;;;;;;;;;;7.80;99.90;;;6.91;100.00;97854.31;5020282;28;1600;-71
2023/11/16 05:58:09;;;;;;;;;;;7.80;99.90;;;6.90;100.00;97859.50;4988990;28;1903;-72
2023/11/16 06:00:36;;;;;;;;;;;7.80;99.90;;;6.84;100.00;97845.03;5021063;28;1613;-74
2023/11/16 06:03:05;;;;;;;;;;;7.80;99.90;;;6.89;100.00;97855.25;5021937;28;1609;-72
2023/11/16 06:05:35;;;;;;;;;;;7.80;99.90;;;6.85;100.00;97846.72;5004293;28;1543;-70
2023/11/16 06:08:03;;;;;;;;;;;7.80;99.90;;;7.05;100.00;97851.41;5002055;28;1681;-70
2023/11/16 06:10:30;;;;;;;;;;;7.80;99.90;;;7.15;100.00;97846.88;5020762;28;1362;-71
2023/11/16 06:12:59;;;;;;;;;;;7.80;99.90;;;7.19;100.00;97842.50;5019514;28;1412;-70
2023/11/16 06:15:28;;;;;;;;;;;7.80;99.90;;;7.16;100.00;97853.75;5022336;28;1597;-69
2023/11/16 06:17:58;;;;;;;;;;;7.80;99.90;;;7.17;100.00;97858.00;5022298;28;1894;-70
2023/11/16 06:20:25;;;;;;;;;;;7.80;99.90;;;7.22;100.00;97858.72;5019859;28;1360;-71
2023/11/16 06:22:52;;;;;;;;;;;7.80;99.90;;;7.03;100.00;97865.25;5021577;28;1359;-70
2023/11/16 06:25:20;;;;;;;;;;;7.80;99.90;;;6.99;100.00;97855.88;5024076;28;1380;-70
2023/11/16 06:27:47;;;;;;;;;;;7.70;99.90;;;7.08;100.00;97859.06;5004021;28;1278;-71
2023/11/16 06:30:14;;;;;;;;;;;7.70;99.90;;;7.08;100.00;97847.91;5022698;28;1218;-71
2023/11/16 06:32:42;;;;;;;;;;;7.70;99.90;;;7.11;100.00;97846.06;5022498;28;1339;-70
2023/11/16 06:35:10;;;;;;;;;;;7.60;99.90;;;7.14;100.00;97840.03;5022161;28;1476;-73
2023/11/16 06:37:37;;;;;;;;;;;7.70;99.90;;;7.05;100.00;97838.50;5001960;28;1989;-70
2023/11/16 06:40:09;;;;;;;;;;;7.70;99.90;;;7.06;100.00;97836.75;5018400;28;1253;-70
2023/11/16 06:42:37;;;;;;;;;;;7.70;99.90;;;7.05;100.00;97835.94;5006422;28;1384;-70
2023/11/16 06:45:06;;;;;;;;;;;7.70;99.90;;;7.00;100.00;97837.78;5021306;28;1245;-70
2023/11/16 06:47:34;;;;;;;;;;;7.70;99.90;;;6.96;100.00;97833.56;5020607;28;1222;-70
2023/11/16 06:50:03;;;;;;;;;;;7.70;99.90;;;6.86;100.00;97830.34;5004239;28;1297;-70
2023/11/16 06:52:30;;;;;;;;;;;7.70;99.90;;;6.88;100.00;97832.88;5019354;28;1404;-73
2023/11/16 06:54:57;;;;;;;;;;;7.60;99.90;;;6.82;100.00;97830.44;5021942;28;1344;-70
2023/11/16 06:57:26;;;;;;;;;;;7.60;99.90;;;6.81;100.00;97824.44;5019364;28;1985;-71
2023/11/16 06:59:54;;;;;;;;;;;7.60;99.90;;;6.79;100.00;97828.78;4999418;28;1389;-70
2023/11/16 07:02:38;;;;;;;;;;;7.60;99.90;;;6.85;100.00;97827.81;5020690;28;1369;-71
2023/11/16 07:05:06;;;;;;;;;;;7.50;99.90;;;6.88;100.00;97817.41;5020717;28;1288;-70
2023/11/16 07:07:33;;;;;;;;;;;7.50;99.90;;;7.00;100.00;97817.13;5006999;28;1503;-71
2023/11/16 07:10:00;;;;;;;;;;;7.60;99.90;;;6.97;100.00;97808.59;5022927;28;1230;-70
2023/11/16 07:12:30;;;;;;;;;;;7.60;99.90;;;7.12;100.00;97792.75;5016435;28;1280;-70
2023/11/16 07:14:57;;;;;;;;;;;7.70;99.90;;;7.22;100.00;97788.19;5005212;28;1184;-70
2023/11/16 07:17:24;;;;;;;;;;;7.70;99.90;;;7.17;100.00;97784.88;5018652;28;1989;-70
2023/11/16 07:19:54;;;;;;;;;;;7.80;99.90;;;7.22;100.00;97783.03;5020746;28;1309;-70
2023/11/16 07:22:21;;;;;;;;;;;7.80;99.90;;;7.25;100.00;97782.94;5016739;28;1297;-70
2023/11/16 07:24:49;;;;;;;;;;;7.80;99.90;;;7.24;100.00;97791.56;5017999;28;1222;-71
2023/11/16 07:27:16;;;;;;;;;;;7.90;99.90;;;7.24;100.00;97791.56;5005295;28;1355;-70
2023/11/16 07:29:43;;;;;;;;;;;7.90;99.90;;;7.16;100.00;97799.53;5006543;28;1071;-74
2023/11/16 07:32:12;;;;;;;;;;;7.90;99.90;;;7.16;100.00;97783.16;5024366;28;1260;-71
2023/11/16 07:34:41;;;;;;;;;;;7.90;99.90;;;7.36;100.00;97778.34;5024724;28;1372;-71
2023/11/16 07:37:11;;;;;;;;;;;7.90;99.90;;;7.41;100.00;97776.50;5010782;28;1040;-71
2023/11/16 07:39:38;;;;;;;;;;;8.00;99.90;;;7.41;100.00;97771.34;5026969;28;1902;-70
2023/11/16 07:42:07;;;;;;;;;;;8.00;99.90;;;7.48;100.00;97777.16;5006518;28;1375;-70
2023/11/16 07:44:34;;;;;;;;;;;8.00;99.90;;;7.49;100.00;97787.44;5024570;28;1007;-70
2023/11/16 07:47:01;;;;;;;;;;;8.10;99.90;;;7.56;100.00;97775.22;5022181;28;1379;-70
2023/11/16 07:49:28;;;;;;;;;;;8.10;99.90;;;7.23;100.00;97764.91;5023976;28;1304;-70
2023/11/16 07:51:55;;;;;;;;;;;8.10;99.90;;;7.28;100.00;97762.22;5023114;28;1775;-70
2023/11/16 07:54:22;;;;;;;;;;;8.10;99.90;;;7.38;100.00;97761.06;5022573;28;1217;-71
2023/11/16 07:56:52;;;;;;;;;;;8.10;99.90;;;7.37;100.00;97756.81;5024464;28;1362;-71
2023/11/16 07:59:30;;;;;;;;;;;8.10;99.90;;;7.37;100.00;97751.63;5021952;28;1903;-70
2023/11/16 08:02:00;;;;;;;;;;;8.20;99.90;;;7.25;100.00;97744.19;5022142;28;1371;-70
2023/11/16 08:04:27;;;;;;;;;;;8.20;99.90;;;7.46;100.00;97751.38;5004881;28;1250;-71
2023/11/16 08:06:55;;;;;;;;;;;8.20;99.90;;;7.56;100.00;97740.81;5004263;28;1495;-70
2023/11/16 08:09:24;;;;;;;;;;;8.20;99.90;;;7.63;100.00;97739.75;5019362;28;1297;-70
2023/11/16 08:11:54;;;;;;;;;;;8.30;99.90;;;7.49;100.00;97732.38;5021521;28;1355;-70
2023/11/16 08:14:30;;;;;;;;;;;8.20;99.90;;;7.57;100.00;97734.72;5011968;28;962;-71
2023/11/16 08:16:58;;;;;;;;;;;8.30;99.90;;;7.71;100.00;97727.47;5006061;28;1306;-71
2023/11/16 08:19:26;;;;;;;;;;;8.40;99.90;;;7.82;100.00;97727.13;5021383;28;2022;-71
2023/11/16 08:21:56;;;;;;;;;;;8.40;99.90;;;7.78;100.00;97728.09;5007953;28;1312;-70
2023/11/16 08:24:28;;;;;;;;;;;8.50;99.90;;;7.59;100.00;97717.44;5006719;28;1408;-71
2023/11/16 08:26:58;;;;;;;;;;;8.50;99.90;;;7.88;100.00;97714.03;5009134;28;1369;-72
2023/11/16 08:29:25;;;;;;;;;;;8.60;99.90;;;8.03;100.00;97712.72;5019566;28;1416;-70
2023/11/16 08:31:56;;;;;;;;;;;8.60;99.90;;;7.87;100.00;97705.44;5019239;28;1296;-70
2023/11/16 08:34:27;;;;;;;;;;;8.60;99.90;;;7.89;100.00;97701.06;5022470;28;1469;-70
2023/11/16 08:36:55;;;;;;;;;;;8.70;99.90;;;8.05;100.00;97685.09;5020767;28;1369;-70
2023/11/16 08:39:23;;;;;;;;;;;8.70;99.90;;;8.05;100.00;97687.66;5006195;28;1918;-73
2023/11/16 08:41:52;;;;;;;;;;;8.80;99.90;;;8.12;100.00;97681.44;5022832;28;1455;-70
2023/11/16 08:44:19;;;;;;;;;;;8.80;99.90;;;8.07;100.00;97680.72;5027505;28;1175;-71
2023/11/16 08:46:52;;;;;;;;;;;8.70;99.90;;;7.96;100.00;97676.72;5023206;28;1249;-70
2023/11/16 08:49:21;;;;;;;;;;;8.70;99.90;;;7.92;100.00;97675.13;5016975;28;1103;-70
2023/11/16 08:51:58;;;;;;;;;;;8.70;99.90;;;7.97;100.00;97673.25;5020286;28;1654;-70
2023/11/16 08:54:27;;;;;;;;;;;8.60;99.90;;;8.01;100.00;97666.25;5019502;28;2052;-70
2023/11/16 08:56:57;;;;;;;;;;;8.70;99.90;;;8.03;100.00;97669.63;5014873;28;999;-70
2023/11/16 08:59:24;;;;;;;;;;;8.80;99.90;;;8.05;100.00;97673.03;5007274;28;1907;-70
2023/11/16 09:01:51;;;;;;;;;;;8.80;99.90;;;8.02;100.00;97660.19;5021402;28;1268;-70
2023/11/16 09:04:20;;;;;;;;;;;8.80;99.90;;;8.17;100.00;97657.13;5021274;28;1006;-71
2023/11/16 09:06:50;;;;;;;;;;;8.80;99.90;;;8.04;100.00;97657.56;5010768;28;1006;-72
2023/11/16 09:09:35;;;;;;;;;;;8.90;99.90;;;8.20;100.00;97651.00;5018782;28;1046;-71
2023/11/16 09:12:12;;;;;;;;;;;8.90;99.90;;;8.24;100.00;97639.66;5008740;28;1344;-70
2023/11/16 09:14:41;;;;;;;;;;;8.90;99.90;;;8.16;100.00;97631.31;5022763;28;1475;-70
2023/11/16 09:17:17;;;;;;;;;;;8.90;99.90;;;8.21;100.00;97628.56;5023883;28;1356;-70
2023/11/16 09:19:44;;;;;;;;;;;8.80;99.90;;;8.02;100.00;97617.97;5023169;28;1968;-71
2023/11/16 09:22:11;;;;;;;;;;;8.80;99.90;;;8.32;100.00;97616.13;5021292;28;1392;-69
2023/11/16 09:24:41;;;;;;;;;;;8.80;99.90;;;8.08;100.00;97607.44;5022280;28;1394;-69
2023/11/16 09:27:08;;;;;;;;;;;8.80;99.90;;;8.06;100.00;97604.06;5026072;28;1403;-69
2023/11/16 09:29:38;;;;;;;;;;;8.90;99.90;;;7.93;100.00;97601.84;5022894;28;1280;-69
2023/11/16 09:32:10;;;;;;;;;;;8.80;99.90;;;8.14;100.00;97594.31;5005643;28;1396;-69
2023/11/16 09:34:39;;;;;;;;;;;8.90;99.90;;;8.23;100.00;97583.66;5020162;28;1713;-69
2023/11/16 09:37:07;;;;;;;;;;;8.90;99.90;;;8.45;100.00;97583.00;5022645;28;1419;-69
2023/11/16 09:39:34;;;;;;;;;;;9.00;99.90;;;8.25;100.00;97565.53;5025082;28;1975;-69
2023/11/16 09:42:05;;;;;;;;;;;9.00;99.90;;;8.16;100.00;97549.44;5004321;28;1590;-71
2023/11/16 09:44:32;;;;;;;;;;;9.00;99.90;;;8.37;100.00;97550.44;5004949;28;1919;-69
2023/11/16 09:47:02;;;;;;;;;;;9.00;99.90;;;8.31;100.00;97536.88;5024350;28;1320;-69
2023/11/16 09:49:30;;;;;;;;;;;9.00;99.90;;;8.43;100.00;97535.63;5022393;28;1194;-69
2023/11/16 09:52:00;;;;;;;;;;;9.10;99.90;;;8.15;100.00;97523.63;5017891;28;1763;-69
2023/11/16 09:54:28;;;;;;;;;;;9.00;99.90;;;8.23;100.00;97513.84;5019806;28;1294;-70
2023/11/16 09:57:00;;;;;;;;;;;9.10;99.90;;;8.37;100.00;97511.66;5003093;28;1567;-69
2023/11/16 09:59:34;;;;;;;;;;;9.10;99.90;;;8.31;100.00;97498.94;5017625;28;1902;-69
2023/11/16 10:02:10;;;;;;;;;;;9.10;99.90;;;8.27;100.00;97492.16;5022818;28;1399;-69
2023/11/16 10:04:41;;;;;;;;;;;9.00;99.90;;;8.15;100.00;97477.91;5016207;28;1257;-69
2023/11/16 10:07:20;;;;;;;;;;;9.00;99.90;;;8.09;100.00;97472.94;5020272;28;1217;-69
2023/11/16 10:09:47;;;;;;;;;;;8.90;99.90;;;8.43;100.00;97468.38;5020760;28;1382;-69
2023/11/16 10:12:14;;;;;;;;;;;9.00;99.90;;;8.23;100.00;97463.88;5005647;28;1411;-70
2023/11/16 10:14:51;;;;;;;;;;;9.00;99.90;;;8.29;100.00;97459.34;5024333;28;1182;-70
2023/11/16 10:17:25;;;;;;;;;;;9.00;99.90;;;8.35;100.00;97448.78;4991726;28;1599;-68
2023/11/16 10:19:52;;;;;;;;;;;9.10;99.90;;;8.33;100.00;97441.97;5020327;28;1997;-68
2023/11/16 10:22:19;;;;;;;;;;;9.10;99.90;;;8.43;100.00;97421.84;5003227;28;1320;-69
2023/11/16 10:24:48;;;;;;;;;;;9.10;99.90;;;8.27;100.00;97409.41;5005379;28;1010;-70
2023/11/16 10:27:18;;;;;;;;;;;9.00;99.90;;;8.32;100.00;97411.84;5001832;28;1235;-69
2023/11/16 10:29:46;;;;;;;;;;;9.00;99.90;;;8.29;100.00;97404.19;5000523;28;1405;-70
2023/11/16 10:32:14;;;;;;;;;;;8.90;99.90;;;8.40;100.00;97396.94;5017712;28;1496;-69
2023/11/16 10:34:41;;;;;;;;;;;9.00;99.90;;;8.28;100.00;97386.97;5018753;28;1447;-70
2023/11/16 10:37:09;;;;;;;;;;;9.00;99.90;;;8.32;100.00;97373.88;5017447;28;1608;-70
2023/11/16 10:39:36;;;;;;;;;;;8.90;99.90;;;8.18;100.00;97370.97;4989806;28;1903;-69
2023/11/16 10:42:03;;;;;;;;;;;8.90;99.90;;;8.16;100.00;97355.53;4987309;28;1378;-69
2023/11/16 10:44:31;;;;;;;;;;;8.90;99.90;;;8.31;100.00;97359.28;5002425;28;1564;-68
2023/11/16 10:46:59;;;;;;;;;;;8.90;99.90;;;8.11;100.00;97347.06;4985254;28;1411;-68
2023/11/16 10:49:27;;;;;;;;;;;8.80;99.90;;;8.22;100.00;97338.94;4990056;28;1037;-68
2023/11/16 10:51:56;;;;;;;;;;;8.80;99.90;;;8.23;100.00;97348.38;5019037;28;1431;-68
2023/11/16 10:54:27;;;;;;;;;;;8.80;99.90;;;8.26;100.00;97350.84;5004495;28;1577;-70
2023/11/16 10:56:54;;;;;;;;;;;8.80;99.90;;;8.27;100.00;97347.34;5017709;28;1282;-69
2023/11/16 10:59:23;;;;;;;;;;;8.90;99.90;;;7.98;100.00;97348.41;5001384;28;1910;-68
2023/11/16 11:01:50;;;;;;;;;;;8.80;99.90;;;8.21;100.00;97351.91;5001023;28;1455;-72
2023/11/16 11:04:18;;;;;;;;;;;8.80;99.90;;;8.24;100.00;97347.47;5019698;28;1572;-68
2023/11/16 11:06:50;;;;;;;;;;;8.80;99.90;;;8.09;100.00;97342.88;5024821;28;1394;-71
2023/11/16 11:09:22;;;;;;;;;;;8.80;99.90;;;8.02;100.00;97346.56;5024795;28;1524;-71
2023/11/16 11:11:53;;;;;;;;;;;8.70;99.90;;;8.11;100.00;97348.81;5020304;28;1707;-69
2023/11/16 11:14:25;;;;;;;;;;;8.80;99.90;;;8.10;100.00;97355.75;5005007;28;1482;-70
2023/11/16 11:16:52;;;;;;;;;;;8.80;99.90;;;8.18;100.00;97364.03;5027085;28;1601;-69
2023/11/16 11:19:31;;;;;;;;;;;8.80;99.90;;;8.15;100.00;97366.75;5020761;28;1894;-68
2023/11/16 11:22:00;;;;;;;;;;;8.80;99.90;;;8.04;100.00;97368.03;5024374;28;1623;-69
2023/11/16 11:24:27;;;;;;;;;;;8.70;99.90;;;8.11;100.00;97375.50;5024468;28;1560;-69
2023/11/16 11:26:54;;;;;;;;;;;8.70;99.90;;;8.12;100.00;97373.78;5004706;28;1470;-70
2023/11/16 11:29:23;;;;;;;;;;;8.70;99.90;;;8.21;100.00;97376.03;5021799;28;1509;-70
2023/11/16 11:32:03;;;;;;;;;;;8.80;99.90;;;8.31;100.00;97374.78;5021231;28;1566;-71
2023/11/16 11:34:36;;;;;;;;;;;8.90;99.90;;;8.12;100.00;97368.63;5023837;28;1659;-71
2023/11/16 11:37:09;;;;;;;;;;;9.00;99.90;;;8.16;100.00;97358.13;5023367;28;1404;-70
2023/11/16 11:39:46;;;;;;;;;;;8.90;99.90;;;7.96;100.00;97345.91;5006129;28;1910;-70
2023/11/16 11:42:16;;;;;;;;;;;8.80;99.90;;;8.01;100.00;97344.91;5023090;28;1355;-70